sensor_id;sensor_type;location;lat;lon;timestamp;P1;durP1;ratioP1;P2;durP2;ratioP2
14066;SDS011;7108;42.684;23.350;2022-10-16T00:02:18;218.07;;;87.33;;
14066;SDS011;7108;42.684;23.350;2022-10-16T00:04:43;218.00;;;87.50;;
14066;SDS011;7108;42.684;23.350;2022-10-16T00:07:09;252.50;;;91.77;;
14066;SDS011;7108;42.684;23.350;2022-10-16T00:09:34;230.73;;;89.27;;
14066;SDS011;7108;42.684;23.350;2022-10-16T00:11:59;238.80;;;90.07;;
14066;SDS011;7108;42.684;23.350;2022-10-16T00:14:25;194.83;;;85.60;;
14066;SDS011;7108;42.684;23.350;2022-10-16T00:16:50;199.23;;;85.30;;
14066;SDS011;7108;42.684;23.350;2022-10-16T00:19:16;217.63;;;87.17;;
14066;SDS011;7108;42.684;23.350;2022-10-16T00:21:41;221.37;;;87.23;;
14066;SDS011;7108;42.684;23.350;2022-10-16T00:24:07;256.60;;;94.77;;
14066;SDS011;7108;42.684;23.350;2022-10-16T00:26:35;230.80;;;89.23;;
14066;SDS011;7108;42.684;23.350;2022-10-16T00:29:01;232.13;;;90.57;;
14066;SDS011;7108;42.684;23.350;2022-10-16T00:31:27;202.90;;;85.90;;
14066;SDS011;7108;42.684;23.350;2022-10-16T00:33:53;207.43;;;86.43;;
14066;SDS011;7108;42.684;23.350;2022-10-16T00:36:19;218.00;;;87.27;;
14066;SDS011;7108;42.684;23.350;2022-10-16T00:38:47;229.17;;;91.23;;
14066;SDS011;7108;42.684;23.350;2022-10-16T00:41:15;230.70;;;90.17;;
14066;SDS011;7108;42.684;23.350;2022-10-16T00:43:46;221.63;;;87.63;;
14066;SDS011;7108;42.684;23.350;2022-10-16T00:51:29;195.60;;;83.90;;
14066;SDS011;7108;42.684;23.350;2022-10-16T00:54:26;217.70;;;88.00;;
14066;SDS011;7108;42.684;23.350;2022-10-16T00:56:55;196.63;;;84.80;;
14066;SDS011;7108;42.684;23.350;2022-10-16T00:59:27;199.70;;;83.93;;
14066;SDS011;7108;42.684;23.350;2022-10-16T01:01:55;205.53;;;84.97;;
14066;SDS011;7108;42.684;23.350;2022-10-16T01:04:22;192.63;;;82.77;;
14066;SDS011;7108;42.684;23.350;2022-10-16T01:09:26;204.60;;;86.77;;
14066;SDS011;7108;42.684;23.350;2022-10-16T01:12:22;211.77;;;86.87;;
14066;SDS011;7108;42.684;23.350;2022-10-16T01:20:33;194.07;;;81.77;;
14066;SDS011;7108;42.684;23.350;2022-10-16T01:31:29;199.80;;;83.97;;
14066;SDS011;7108;42.684;23.350;2022-10-16T01:34:03;220.23;;;86.80;;
14066;SDS011;7108;42.684;23.350;2022-10-16T01:36:38;217.80;;;87.20;;
14066;SDS011;7108;42.684;23.350;2022-10-16T01:39:08;236.80;;;88.23;;
14066;SDS011;7108;42.684;23.350;2022-10-16T01:41:41;223.37;;;88.23;;
14066;SDS011;7108;42.684;23.350;2022-10-16T01:44:28;245.17;;;91.27;;
14066;SDS011;7108;42.684;23.350;2022-10-16T01:46:56;193.93;;;83.87;;
14066;SDS011;7108;42.684;23.350;2022-10-16T01:49:23;193.30;;;83.17;;
14066;SDS011;7108;42.684;23.350;2022-10-16T01:51:54;197.13;;;83.13;;
14066;SDS011;7108;42.684;23.350;2022-10-16T01:54:25;205.37;;;87.03;;
14066;SDS011;7108;42.684;23.350;2022-10-16T01:56:56;198.90;;;83.70;;
14066;SDS011;7108;42.684;23.350;2022-10-16T01:59:23;201.47;;;84.70;;
14066;SDS011;7108;42.684;23.350;2022-10-16T02:01:55;205.40;;;87.30;;
14066;SDS011;7108;42.684;23.350;2022-10-16T02:04:29;195.67;;;84.60;;
14066;SDS011;7108;42.684;23.350;2022-10-16T02:06:59;205.17;;;83.53;;
14066;SDS011;7108;42.684;23.350;2022-10-16T02:09:25;197.13;;;84.80;;
14066;SDS011;7108;42.684;23.350;2022-10-16T02:11:51;197.53;;;85.57;;
14066;SDS011;7108;42.684;23.350;2022-10-16T02:14:20;192.37;;;84.47;;
14066;SDS011;7108;42.684;23.350;2022-10-16T02:16:49;208.90;;;85.43;;
14066;SDS011;7108;42.684;23.350;2022-10-16T02:19:15;227.70;;;89.30;;
14066;SDS011;7108;42.684;23.350;2022-10-16T02:21:58;204.77;;;83.70;;
14066;SDS011;7108;42.684;23.350;2022-10-16T02:30:07;204.47;;;86.27;;
14066;SDS011;7108;42.684;23.350;2022-10-16T02:32:39;214.97;;;87.97;;
14066;SDS011;7108;42.684;23.350;2022-10-16T02:35:07;200.37;;;85.43;;
14066;SDS011;7108;42.684;23.350;2022-10-16T02:37:34;201.63;;;85.97;;
14066;SDS011;7108;42.684;23.350;2022-10-16T02:40:01;219.67;;;86.37;;
14066;SDS011;7108;42.684;23.350;2022-10-16T02:42:38;201.13;;;87.63;;
14066;SDS011;7108;42.684;23.350;2022-10-16T02:45:05;241.93;;;92.00;;
14066;SDS011;7108;42.684;23.350;2022-10-16T02:47:33;201.07;;;84.17;;
14066;SDS011;7108;42.684;23.350;2022-10-16T02:49:58;204.33;;;86.90;;
14066;SDS011;7108;42.684;23.350;2022-10-16T02:52:24;200.70;;;87.40;;
14066;SDS011;7108;42.684;23.350;2022-10-16T02:54:49;193.43;;;84.27;;
14066;SDS011;7108;42.684;23.350;2022-10-16T02:57:15;241.13;;;91.93;;
14066;SDS011;7108;42.684;23.350;2022-10-16T02:59:40;225.07;;;88.00;;
14066;SDS011;7108;42.684;23.350;2022-10-16T03:02:06;246.50;;;93.07;;
14066;SDS011;7108;42.684;23.350;2022-10-16T03:04:31;192.63;;;83.40;;
14066;SDS011;7108;42.684;23.350;2022-10-16T03:06:57;194.57;;;83.77;;
14066;SDS011;7108;42.684;23.350;2022-10-16T03:09:22;198.60;;;84.47;;
14066;SDS011;7108;42.684;23.350;2022-10-16T03:11:48;218.67;;;89.80;;
14066;SDS011;7108;42.684;23.350;2022-10-16T03:14:13;236.30;;;88.67;;
14066;SDS011;7108;42.684;23.350;2022-10-16T03:16:39;218.10;;;87.70;;
14066;SDS011;7108;42.684;23.350;2022-10-16T03:19:04;247.53;;;92.53;;
14066;SDS011;7108;42.684;23.350;2022-10-16T03:21:30;193.10;;;81.83;;
14066;SDS011;7108;42.684;23.350;2022-10-16T03:23:55;203.10;;;82.53;;
14066;SDS011;7108;42.684;23.350;2022-10-16T03:26:20;194.17;;;81.40;;
14066;SDS011;7108;42.684;23.350;2022-10-16T03:28:46;217.20;;;85.83;;
14066;SDS011;7108;42.684;23.350;2022-10-16T03:31:11;215.97;;;85.63;;
14066;SDS011;7108;42.684;23.350;2022-10-16T03:33:37;219.10;;;88.17;;
14066;SDS011;7108;42.684;23.350;2022-10-16T03:36:02;216.53;;;85.37;;
14066;SDS011;7108;42.684;23.350;2022-10-16T03:38:28;190.53;;;80.17;;
14066;SDS011;7108;42.684;23.350;2022-10-16T03:40:53;191.13;;;81.87;;
14066;SDS011;7108;42.684;23.350;2022-10-16T03:43:19;202.83;;;82.87;;
14066;SDS011;7108;42.684;23.350;2022-10-16T03:45:44;212.23;;;84.77;;
14066;SDS011;7108;42.684;23.350;2022-10-16T03:48:09;249.73;;;92.80;;
14066;SDS011;7108;42.684;23.350;2022-10-16T03:50:35;208.53;;;84.67;;
14066;SDS011;7108;42.684;23.350;2022-10-16T03:53:01;193.13;;;83.63;;
14066;SDS011;7108;42.684;23.350;2022-10-16T03:55:26;191.57;;;81.13;;
14066;SDS011;7108;42.684;23.350;2022-10-16T03:57:52;184.63;;;79.30;;
14066;SDS011;7108;42.684;23.350;2022-10-16T04:00:17;237.53;;;88.20;;
14066;SDS011;7108;42.684;23.350;2022-10-16T04:02:42;201.93;;;83.67;;
14066;SDS011;7108;42.684;23.350;2022-10-16T04:05:08;243.83;;;90.90;;
14066;SDS011;7108;42.684;23.350;2022-10-16T04:07:33;209.60;;;85.53;;
14066;SDS011;7108;42.684;23.350;2022-10-16T04:09:59;194.27;;;80.63;;
14066;SDS011;7108;42.684;23.350;2022-10-16T04:12:25;189.53;;;80.77;;
14066;SDS011;7108;42.684;23.350;2022-10-16T04:14:51;200.00;;;84.63;;
14066;SDS011;7108;42.684;23.350;2022-10-16T04:17:16;205.37;;;84.37;;
14066;SDS011;7108;42.684;23.350;2022-10-16T04:19:41;207.27;;;83.87;;
14066;SDS011;7108;42.684;23.350;2022-10-16T04:22:07;236.63;;;85.60;;
14066;SDS011;7108;42.684;23.350;2022-10-16T04:24:32;202.40;;;85.33;;
14066;SDS011;7108;42.684;23.350;2022-10-16T04:26:58;195.53;;;82.90;;
14066;SDS011;7108;42.684;23.350;2022-10-16T04:29:23;192.17;;;81.93;;
14066;SDS011;7108;42.684;23.350;2022-10-16T04:31:49;209.37;;;82.77;;
14066;SDS011;7108;42.684;23.350;2022-10-16T04:34:14;237.03;;;89.37;;
14066;SDS011;7108;42.684;23.350;2022-10-16T04:36:39;210.83;;;82.33;;
14066;SDS011;7108;42.684;23.350;2022-10-16T04:39:05;223.97;;;86.33;;
14066;SDS011;7108;42.684;23.350;2022-10-16T04:41:30;187.20;;;80.63;;
14066;SDS011;7108;42.684;23.350;2022-10-16T04:43:56;199.07;;;85.57;;
14066;SDS011;7108;42.684;23.350;2022-10-16T04:46:21;211.40;;;84.13;;
14066;SDS011;7108;42.684;23.350;2022-10-16T04:48:46;190.03;;;82.13;;
14066;SDS011;7108;42.684;23.350;2022-10-16T04:51:12;235.60;;;88.00;;
14066;SDS011;7108;42.684;23.350;2022-10-16T04:53:37;218.17;;;85.97;;
14066;SDS011;7108;42.684;23.350;2022-10-16T04:56:03;197.47;;;83.33;;
14066;SDS011;7108;42.684;23.350;2022-10-16T04:58:28;185.93;;;80.17;;
14066;SDS011;7108;42.684;23.350;2022-10-16T05:00:54;191.07;;;81.23;;
14066;SDS011;7108;42.684;23.350;2022-10-16T05:03:19;240.23;;;89.60;;
14066;SDS011;7108;42.684;23.350;2022-10-16T05:05:45;208.63;;;85.20;;
14066;SDS011;7108;42.684;23.350;2022-10-16T05:08:14;249.80;;;93.77;;
14066;SDS011;7108;42.684;23.350;2022-10-16T05:10:41;216.07;;;85.13;;
14066;SDS011;7108;42.684;23.350;2022-10-16T05:13:08;255.00;;;90.47;;
14066;SDS011;7108;42.684;23.350;2022-10-16T05:15:34;239.30;;;88.20;;
14066;SDS011;7108;42.684;23.350;2022-10-16T05:17:59;232.33;;;87.27;;
14066;SDS011;7108;42.684;23.350;2022-10-16T05:20:25;219.20;;;85.40;;
14066;SDS011;7108;42.684;23.350;2022-10-16T05:22:50;245.43;;;95.53;;
14066;SDS011;7108;42.684;23.350;2022-10-16T05:25:16;289.80;;;101.83;;
14066;SDS011;7108;42.684;23.350;2022-10-16T05:27:41;268.73;;;101.17;;
14066;SDS011;7108;42.684;23.350;2022-10-16T05:30:07;253.47;;;91.63;;
14066;SDS011;7108;42.684;23.350;2022-10-16T05:32:33;237.97;;;87.33;;
14066;SDS011;7108;42.684;23.350;2022-10-16T05:34:58;223.00;;;85.27;;
14066;SDS011;7108;42.684;23.350;2022-10-16T05:37:25;183.33;;;81.20;;
14066;SDS011;7108;42.684;23.350;2022-10-16T05:39:52;192.53;;;82.53;;
14066;SDS011;7108;42.684;23.350;2022-10-16T05:42:17;239.63;;;90.30;;
14066;SDS011;7108;42.684;23.350;2022-10-16T05:44:42;210.27;;;84.73;;
14066;SDS011;7108;42.684;23.350;2022-10-16T05:47:08;245.47;;;88.60;;
14066;SDS011;7108;42.684;23.350;2022-10-16T05:49:33;200.27;;;82.23;;
14066;SDS011;7108;42.684;23.350;2022-10-16T05:51:59;191.13;;;84.87;;
14066;SDS011;7108;42.684;23.350;2022-10-16T05:54:25;225.07;;;85.83;;
14066;SDS011;7108;42.684;23.350;2022-10-16T05:56:50;231.30;;;90.07;;
14066;SDS011;7108;42.684;23.350;2022-10-16T05:59:15;255.57;;;90.67;;
14066;SDS011;7108;42.684;23.350;2022-10-16T06:01:41;249.83;;;91.47;;
14066;SDS011;7108;42.684;23.350;2022-10-16T06:04:07;262.30;;;93.77;;
14066;SDS011;7108;42.684;23.350;2022-10-16T06:06:34;223.57;;;88.23;;
14066;SDS011;7108;42.684;23.350;2022-10-16T06:09:01;193.67;;;83.27;;
14066;SDS011;7108;42.684;23.350;2022-10-16T06:11:28;197.77;;;82.03;;
14066;SDS011;7108;42.684;23.350;2022-10-16T06:13:56;194.67;;;83.00;;
14066;SDS011;7108;42.684;23.350;2022-10-16T06:16:24;188.90;;;79.60;;
14066;SDS011;7108;42.684;23.350;2022-10-16T06:18:50;198.20;;;82.43;;
14066;SDS011;7108;42.684;23.350;2022-10-16T06:21:17;239.17;;;89.07;;
14066;SDS011;7108;42.684;23.350;2022-10-16T06:23:45;214.67;;;84.70;;
14066;SDS011;7108;42.684;23.350;2022-10-16T06:26:12;248.47;;;90.60;;
14066;SDS011;7108;42.684;23.350;2022-10-16T06:28:38;213.50;;;84.27;;
14066;SDS011;7108;42.684;23.350;2022-10-16T06:31:05;217.73;;;86.83;;
14066;SDS011;7108;42.684;23.350;2022-10-16T06:33:32;198.43;;;84.97;;
14066;SDS011;7108;42.684;23.350;2022-10-16T06:36:04;198.07;;;85.47;;
14066;SDS011;7108;42.684;23.350;2022-10-16T06:38:30;197.80;;;85.30;;
14066;SDS011;7108;42.684;23.350;2022-10-16T06:40:56;200.03;;;86.03;;
14066;SDS011;7108;42.684;23.350;2022-10-16T06:43:22;205.97;;;85.67;;
14066;SDS011;7108;42.684;23.350;2022-10-16T06:45:54;219.40;;;86.53;;
14066;SDS011;7108;42.684;23.350;2022-10-16T06:48:21;207.43;;;86.87;;
14066;SDS011;7108;42.684;23.350;2022-10-16T06:50:57;216.27;;;88.10;;
14066;SDS011;7108;42.684;23.350;2022-10-16T06:53:27;200.20;;;85.87;;
14066;SDS011;7108;42.684;23.350;2022-10-16T06:55:54;196.53;;;84.10;;
14066;SDS011;7108;42.684;23.350;2022-10-16T06:58:19;230.07;;;90.37;;
14066;SDS011;7108;42.684;23.350;2022-10-16T07:00:45;230.97;;;91.40;;
14066;SDS011;7108;42.684;23.350;2022-10-16T07:03:11;256.50;;;92.33;;
14066;SDS011;7108;42.684;23.350;2022-10-16T07:05:37;220.23;;;86.70;;
14066;SDS011;7108;42.684;23.350;2022-10-16T07:08:03;227.10;;;87.77;;
14066;SDS011;7108;42.684;23.350;2022-10-16T07:10:30;200.80;;;89.33;;
14066;SDS011;7108;42.684;23.350;2022-10-16T07:12:56;210.47;;;90.50;;
14066;SDS011;7108;42.684;23.350;2022-10-16T07:15:21;214.83;;;86.50;;
14066;SDS011;7108;42.684;23.350;2022-10-16T07:17:47;220.07;;;86.40;;
14066;SDS011;7108;42.684;23.350;2022-10-16T07:20:12;239.50;;;96.10;;
14066;SDS011;7108;42.684;23.350;2022-10-16T07:22:37;221.10;;;94.10;;
14066;SDS011;7108;42.684;23.350;2022-10-16T07:25:03;226.90;;;93.93;;
14066;SDS011;7108;42.684;23.350;2022-10-16T07:27:28;211.20;;;89.53;;
14066;SDS011;7108;42.684;23.350;2022-10-16T07:29:54;204.93;;;87.17;;
14066;SDS011;7108;42.684;23.350;2022-10-16T07:32:19;228.83;;;86.30;;
14066;SDS011;7108;42.684;23.350;2022-10-16T07:34:45;215.07;;;85.60;;
14066;SDS011;7108;42.684;23.350;2022-10-16T07:37:10;238.90;;;86.43;;
14066;SDS011;7108;42.684;23.350;2022-10-16T07:39:36;224.00;;;86.40;;
14066;SDS011;7108;42.684;23.350;2022-10-16T07:42:01;194.83;;;81.27;;
14066;SDS011;7108;42.684;23.350;2022-10-16T07:44:27;199.57;;;83.27;;
14066;SDS011;7108;42.684;23.350;2022-10-16T07:46:52;208.20;;;83.97;;
14066;SDS011;7108;42.684;23.350;2022-10-16T07:49:18;248.70;;;90.70;;
14066;SDS011;7108;42.684;23.350;2022-10-16T07:51:43;222.27;;;86.73;;
14066;SDS011;7108;42.684;23.350;2022-10-16T07:54:09;248.60;;;90.33;;
14066;SDS011;7108;42.684;23.350;2022-10-16T07:56:35;221.17;;;84.90;;
14066;SDS011;7108;42.684;23.350;2022-10-16T07:59:00;198.40;;;83.27;;
14066;SDS011;7108;42.684;23.350;2022-10-16T08:01:26;195.17;;;82.83;;
14066;SDS011;7108;42.684;23.350;2022-10-16T08:03:52;203.87;;;83.20;;
14066;SDS011;7108;42.684;23.350;2022-10-16T08:06:19;249.73;;;90.50;;
14066;SDS011;7108;42.684;23.350;2022-10-16T08:08:46;217.63;;;85.03;;
14066;SDS011;7108;42.684;23.350;2022-10-16T08:11:12;214.30;;;87.53;;
14066;SDS011;7108;42.684;23.350;2022-10-16T08:13:39;220.90;;;86.63;;
14066;SDS011;7108;42.684;23.350;2022-10-16T08:16:04;233.77;;;90.07;;
14066;SDS011;7108;42.684;23.350;2022-10-16T08:18:33;213.13;;;85.97;;
14066;SDS011;7108;42.684;23.350;2022-10-16T08:21:02;202.47;;;84.20;;
14066;SDS011;7108;42.684;23.350;2022-10-16T08:23:28;198.47;;;82.57;;
14066;SDS011;7108;42.684;23.350;2022-10-16T08:25:54;200.27;;;80.90;;
14066;SDS011;7108;42.684;23.350;2022-10-16T08:28:20;239.70;;;89.90;;
14066;SDS011;7108;42.684;23.350;2022-10-16T08:30:46;221.70;;;85.90;;
14066;SDS011;7108;42.684;23.350;2022-10-16T08:33:12;245.20;;;88.90;;
14066;SDS011;7108;42.684;23.350;2022-10-16T08:35:38;216.10;;;85.73;;
14066;SDS011;7108;42.684;23.350;2022-10-16T08:38:04;243.97;;;87.37;;
14066;SDS011;7108;42.684;23.350;2022-10-16T08:40:30;196.80;;;80.77;;
14066;SDS011;7108;42.684;23.350;2022-10-16T08:51:05;213.70;;;82.93;;
14066;SDS011;7108;42.684;23.350;2022-10-16T08:53:42;212.50;;;81.83;;
14066;SDS011;7108;42.684;23.350;2022-10-16T08:56:11;253.80;;;87.30;;
14066;SDS011;7108;42.684;23.350;2022-10-16T08:58:37;216.33;;;81.77;;
14066;SDS011;7108;42.684;23.350;2022-10-16T09:01:10;210.67;;;81.37;;
14066;SDS011;7108;42.684;23.350;2022-10-16T09:11:25;258.53;;;87.03;;
14066;SDS011;7108;42.684;23.350;2022-10-16T09:16:46;218.93;;;83.47;;
14066;SDS011;7108;42.684;23.350;2022-10-16T09:19:27;221.40;;;82.40;;
14066;SDS011;7108;42.684;23.350;2022-10-16T09:22:01;212.37;;;82.90;;
14066;SDS011;7108;42.684;23.350;2022-10-16T09:24:41;219.60;;;82.83;;
14066;SDS011;7108;42.684;23.350;2022-10-16T09:27:13;232.53;;;84.03;;
14066;SDS011;7108;42.684;23.350;2022-10-16T09:29:40;240.63;;;89.30;;
14066;SDS011;7108;42.684;23.350;2022-10-16T09:32:16;224.53;;;86.77;;
14066;SDS011;7108;42.684;23.350;2022-10-16T09:34:48;215.40;;;86.97;;
14066;SDS011;7108;42.684;23.350;2022-10-16T09:37:17;247.10;;;91.07;;
14066;SDS011;7108;42.684;23.350;2022-10-16T09:39:54;225.33;;;88.40;;
14066;SDS011;7108;42.684;23.350;2022-10-16T09:42:27;240.10;;;89.20;;
14066;SDS011;7108;42.684;23.350;2022-10-16T09:44:57;215.43;;;86.47;;
14066;SDS011;7108;42.684;23.350;2022-10-16T09:47:23;200.40;;;85.17;;
14066;SDS011;7108;42.684;23.350;2022-10-16T09:49:58;197.90;;;86.40;;
14066;SDS011;7108;42.684;23.350;2022-10-16T09:52:27;222.60;;;90.90;;
14066;SDS011;7108;42.684;23.350;2022-10-16T09:54:57;217.97;;;89.93;;
14066;SDS011;7108;42.684;23.350;2022-10-16T09:57:24;202.73;;;89.63;;
14066;SDS011;7108;42.684;23.350;2022-10-16T09:59:52;203.53;;;90.87;;
14066;SDS011;7108;42.684;23.350;2022-10-16T10:02:34;231.97;;;91.77;;
14066;SDS011;7108;42.684;23.350;2022-10-16T10:05:04;222.10;;;94.00;;
14066;SDS011;7108;42.684;23.350;2022-10-16T10:07:42;221.67;;;94.67;;
14066;SDS011;7108;42.684;23.350;2022-10-16T10:10:18;245.60;;;95.63;;
14066;SDS011;7108;42.684;23.350;2022-10-16T10:12:46;217.90;;;91.27;;
14066;SDS011;7108;42.684;23.350;2022-10-16T10:15:12;253.63;;;96.47;;
14066;SDS011;7108;42.684;23.350;2022-10-16T10:17:49;221.10;;;93.93;;
14066;SDS011;7108;42.684;23.350;2022-10-16T10:22:46;224.10;;;95.77;;
14066;SDS011;7108;42.684;23.350;2022-10-16T10:27:39;235.13;;;97.53;;
14066;SDS011;7108;42.684;23.350;2022-10-16T10:30:34;213.00;;;94.40;;
14066;SDS011;7108;42.684;23.350;2022-10-16T10:44:50;208.87;;;94.23;;
14066;SDS011;7108;42.684;23.350;2022-10-16T11:01:39;207.43;;;98.83;;
14066;SDS011;7108;42.684;23.350;2022-10-16T11:06:33;229.37;;;96.30;;
14066;SDS011;7108;42.684;23.350;2022-10-16T11:09:21;228.83;;;98.60;;
14066;SDS011;7108;42.684;23.350;2022-10-16T11:17:30;213.23;;;94.97;;
14066;SDS011;7108;42.684;23.350;2022-10-16T11:20:02;211.70;;;96.03;;
14066;SDS011;7108;42.684;23.350;2022-10-16T11:22:39;214.33;;;95.87;;
14066;SDS011;7108;42.684;23.350;2022-10-16T11:25:16;267.20;;;102.37;;
14066;SDS011;7108;42.684;23.350;2022-10-16T11:28:01;235.63;;;98.27;;
14066;SDS011;7108;42.684;23.350;2022-10-16T11:30:43;228.27;;;100.70;;
14066;SDS011;7108;42.684;23.350;2022-10-16T11:38:43;234.20;;;100.20;;
14066;SDS011;7108;42.684;23.350;2022-10-16T11:44:06;211.70;;;98.73;;
14066;SDS011;7108;42.684;23.350;2022-10-16T11:47:41;217.07;;;100.37;;
14066;SDS011;7108;42.684;23.350;2022-10-16T11:55:43;241.63;;;113.77;;
14066;SDS011;7108;42.684;23.350;2022-10-16T12:00:44;238.27;;;113.00;;
14066;SDS011;7108;42.684;23.350;2022-10-16T12:03:34;221.17;;;111.10;;
14066;SDS011;7108;42.684;23.350;2022-10-16T12:08:43;230.13;;;106.43;;
14066;SDS011;7108;42.684;23.350;2022-10-16T12:11:20;265.80;;;111.47;;
14066;SDS011;7108;42.684;23.350;2022-10-16T12:16:52;236.33;;;110.67;;
14066;SDS011;7108;42.684;23.350;2022-10-16T12:19:20;241.47;;;108.17;;
14066;SDS011;7108;42.684;23.350;2022-10-16T12:21:46;243.37;;;111.90;;
14066;SDS011;7108;42.684;23.350;2022-10-16T12:24:33;273.20;;;116.57;;
14066;SDS011;7108;42.684;23.350;2022-10-16T12:27:02;221.27;;;111.97;;
14066;SDS011;7108;42.684;23.350;2022-10-16T12:34:59;213.90;;;109.70;;
14066;SDS011;7108;42.684;23.350;2022-10-16T12:37:28;219.00;;;111.93;;
14066;SDS011;7108;42.684;23.350;2022-10-16T12:39:58;211.73;;;109.70;;
14066;SDS011;7108;42.684;23.350;2022-10-16T12:42:35;235.27;;;111.67;;
14066;SDS011;7108;42.684;23.350;2022-10-16T12:45:01;215.60;;;109.47;;
14066;SDS011;7108;42.684;23.350;2022-10-16T12:47:50;223.90;;;109.97;;
14066;SDS011;7108;42.684;23.350;2022-10-16T12:50:37;264.37;;;114.43;;
14066;SDS011;7108;42.684;23.350;2022-10-16T12:53:16;219.97;;;106.37;;
14066;SDS011;7108;42.684;23.350;2022-10-16T12:58:51;232.17;;;109.63;;
14066;SDS011;7108;42.684;23.350;2022-10-16T13:10:15;219.73;;;109.07;;
14066;SDS011;7108;42.684;23.350;2022-10-16T13:16:02;220.33;;;110.50;;
14066;SDS011;7108;42.684;23.350;2022-10-16T13:29:10;281.90;;;109.33;;
14066;SDS011;7108;42.684;23.350;2022-10-16T13:31:38;232.77;;;106.83;;
14066;SDS011;7108;42.684;23.350;2022-10-16T13:34:04;243.73;;;113.83;;
14066;SDS011;7108;42.684;23.350;2022-10-16T13:36:43;248.03;;;105.13;;
14066;SDS011;7108;42.684;23.350;2022-10-16T13:39:21;249.43;;;113.57;;
14066;SDS011;7108;42.684;23.350;2022-10-16T13:44:35;251.37;;;111.13;;
14066;SDS011;7108;42.684;23.350;2022-10-16T13:47:05;279.13;;;114.07;;
14066;SDS011;7108;42.684;23.350;2022-10-16T13:49:39;278.90;;;116.07;;
14066;SDS011;7108;42.684;23.350;2022-10-16T13:52:05;282.83;;;112.07;;
14066;SDS011;7108;42.684;23.350;2022-10-16T13:54:30;252.87;;;106.63;;
14066;SDS011;7108;42.684;23.350;2022-10-16T13:56:55;237.27;;;104.80;;
14066;SDS011;7108;42.684;23.350;2022-10-16T13:59:26;298.93;;;115.03;;
14066;SDS011;7108;42.684;23.350;2022-10-16T14:02:05;264.63;;;111.97;;
14066;SDS011;7108;42.684;23.350;2022-10-16T14:04:42;277.83;;;111.77;;
14066;SDS011;7108;42.684;23.350;2022-10-16T14:07:13;280.00;;;112.93;;
14066;SDS011;7108;42.684;23.350;2022-10-16T14:09:47;280.30;;;111.90;;
14066;SDS011;7108;42.684;23.350;2022-10-16T14:12:15;280.80;;;112.73;;
14066;SDS011;7108;42.684;23.350;2022-10-16T14:14:41;252.83;;;108.03;;
14066;SDS011;7108;42.684;23.350;2022-10-16T14:17:30;282.80;;;111.80;;
14066;SDS011;7108;42.684;23.350;2022-10-16T14:19:59;224.83;;;102.23;;
14066;SDS011;7108;42.684;23.350;2022-10-16T14:22:40;239.33;;;104.53;;
14066;SDS011;7108;42.684;23.350;2022-10-16T14:27:44;263.73;;;107.20;;
14066;SDS011;7108;42.684;23.350;2022-10-16T14:30:17;294.00;;;112.67;;
14066;SDS011;7108;42.684;23.350;2022-10-16T14:32:57;229.70;;;101.90;;
14066;SDS011;7108;42.684;23.350;2022-10-16T14:37:54;271.03;;;106.70;;
14066;SDS011;7108;42.684;23.350;2022-10-16T14:40:28;270.73;;;104.77;;
14066;SDS011;7108;42.684;23.350;2022-10-16T14:42:56;261.37;;;106.67;;
14066;SDS011;7108;42.684;23.350;2022-10-16T14:45:23;258.63;;;104.00;;
14066;SDS011;7108;42.684;23.350;2022-10-16T14:47:55;254.47;;;104.57;;
14066;SDS011;7108;42.684;23.350;2022-10-16T14:50:22;295.67;;;110.57;;
14066;SDS011;7108;42.684;23.350;2022-10-16T14:52:48;271.17;;;108.87;;
14066;SDS011;7108;42.684;23.350;2022-10-16T14:55:13;284.63;;;110.50;;
14066;SDS011;7108;42.684;23.350;2022-10-16T14:57:39;317.53;;;114.80;;
14066;SDS011;7108;42.684;23.350;2022-10-16T15:02:49;258.70;;;104.87;;
14066;SDS011;7108;42.684;23.350;2022-10-16T15:07:40;246.23;;;100.77;;
14066;SDS011;7108;42.684;23.350;2022-10-16T15:10:06;263.77;;;103.10;;
14066;SDS011;7108;42.684;23.350;2022-10-16T15:12:32;242.20;;;99.63;;
14066;SDS011;7108;42.684;23.350;2022-10-16T15:14:57;239.57;;;101.90;;
14066;SDS011;7108;42.684;23.350;2022-10-16T15:17:23;252.73;;;98.57;;
14066;SDS011;7108;42.684;23.350;2022-10-16T15:19:48;282.73;;;106.87;;
14066;SDS011;7108;42.684;23.350;2022-10-16T15:22:13;290.30;;;107.87;;
14066;SDS011;7108;42.684;23.350;2022-10-16T15:24:39;247.50;;;99.13;;
14066;SDS011;7108;42.684;23.350;2022-10-16T15:27:04;276.30;;;105.87;;
14066;SDS011;7108;42.684;23.350;2022-10-16T15:29:30;247.63;;;98.10;;
14066;SDS011;7108;42.684;23.350;2022-10-16T15:31:55;254.10;;;100.70;;
14066;SDS011;7108;42.684;23.350;2022-10-16T15:34:21;263.17;;;99.80;;
14066;SDS011;7108;42.684;23.350;2022-10-16T15:36:46;253.80;;;99.77;;
14066;SDS011;7108;42.684;23.350;2022-10-16T15:39:13;292.40;;;107.63;;
14066;SDS011;7108;42.684;23.350;2022-10-16T15:41:41;266.93;;;105.03;;
14066;SDS011;7108;42.684;23.350;2022-10-16T15:44:07;256.47;;;101.83;;
14066;SDS011;7108;42.684;23.350;2022-10-16T15:46:32;231.90;;;98.30;;
14066;SDS011;7108;42.684;23.350;2022-10-16T15:48:59;221.00;;;96.07;;
14066;SDS011;7108;42.684;23.350;2022-10-16T15:51:25;244.97;;;99.93;;
14066;SDS011;7108;42.684;23.350;2022-10-16T15:53:54;237.20;;;100.07;;
14066;SDS011;7108;42.684;23.350;2022-10-16T15:56:21;255.20;;;99.50;;
14066;SDS011;7108;42.684;23.350;2022-10-16T15:58:47;239.70;;;96.67;;
14066;SDS011;7108;42.684;23.350;2022-10-16T16:01:12;263.63;;;100.73;;
14066;SDS011;7108;42.684;23.350;2022-10-16T16:03:38;250.03;;;91.77;;
14066;SDS011;7108;42.684;23.350;2022-10-16T16:06:08;263.40;;;97.87;;
14066;SDS011;7108;42.684;23.350;2022-10-16T16:08:36;266.20;;;94.10;;
14066;SDS011;7108;42.684;23.350;2022-10-16T16:11:19;230.97;;;89.33;;
14066;SDS011;7108;42.684;23.350;2022-10-16T16:13:45;267.93;;;96.67;;
14066;SDS011;7108;42.684;23.350;2022-10-16T16:16:12;264.20;;;93.43;;
14066;SDS011;7108;42.684;23.350;2022-10-16T16:18:39;238.10;;;89.93;;
14066;SDS011;7108;42.684;23.350;2022-10-16T16:21:05;229.73;;;86.77;;
14066;SDS011;7108;42.684;23.350;2022-10-16T16:23:31;242.10;;;89.50;;
14066;SDS011;7108;42.684;23.350;2022-10-16T16:26:22;236.13;;;87.67;;
14066;SDS011;7108;42.684;23.350;2022-10-16T16:28:52;237.13;;;87.53;;
14066;SDS011;7108;42.684;23.350;2022-10-16T16:31:19;278.17;;;92.27;;
14066;SDS011;7108;42.684;23.350;2022-10-16T16:33:46;265.17;;;90.03;;
14066;SDS011;7108;42.684;23.350;2022-10-16T16:36:11;262.80;;;92.43;;
14066;SDS011;7108;42.684;23.350;2022-10-16T16:38:37;282.93;;;100.50;;
14066;SDS011;7108;42.684;23.350;2022-10-16T16:43:38;243.37;;;89.03;;
14066;SDS011;7108;42.684;23.350;2022-10-16T16:46:03;239.37;;;86.90;;
14066;SDS011;7108;42.684;23.350;2022-10-16T16:48:29;241.53;;;86.00;;
14066;SDS011;7108;42.684;23.350;2022-10-16T16:50:54;242.80;;;86.43;;